Time;durP1;ratioP1;P1;durP2;ratioP2;P2;SDS_P1;SDS_P2;PMS_P1;PMS_P2;Temp;Humidity;BMP_temperature;BMP_pressure;BME280_temperature;BME280_humidity;BME280_pressure;Samples;Min_cycle;Max_cycle;Signal;HPM_P1;HPM_P2
2022/04/10 00:00:23;;;;;;;10.63;5.20;;;;;;;1.30;100.00;101818.84;5070296;28;20044;-55
2022/04/10 00:02:48;;;;;;;9.70;5.33;;;;;;;1.28;100.00;101815.25;5070503;28;20060;-53
2022/04/10 00:05:14;;;;;;;6.80;4.83;;;;;;;1.25;100.00;101815.00;5069999;28;20071;-53
2022/04/10 00:07:40;;;;;;;12.07;5.53;;;;;;;1.16;100.00;101816.03;5069711;28;20082;-53
2022/04/10 00:10:06;;;;;;;9.00;5.53;;;;;;;1.15;100.00;101816.75;5070054;28;20032;-54
2022/04/10 00:12:35;;;;;;;6.37;4.50;;;;;;;1.11;100.00;101824.94;5070025;28;20028;-51
2022/04/10 00:15:04;;;;;;;7.53;5.10;;;;;;;1.05;100.00;101822.75;5069914;28;20437;-55
2022/04/10 00:17:29;;;;;;;9.50;5.50;;;;;;;0.99;100.00;101821.34;5070272;28;20039;-55
2022/04/10 00:19:55;;;;;;;8.40;5.10;;;;;;;0.95;100.00;101825.28;5069676;28;20032;-54
2022/04/10 00:22:20;;;;;;;9.83;5.37;;;;;;;0.90;100.00;101821.44;5068313;28;20024;-53
2022/04/10 00:24:45;;;;;;;8.23;5.27;;;;;;;0.85;100.00;101812.47;5069361;28;20391;-52
2022/04/10 00:27:13;;;;;;;13.73;5.67;;;;;;;0.85;100.00;101825.25;5069489;28;20058;-53
2022/04/10 00:29:40;;;;;;;11.73;6.10;;;;;;;0.80;100.00;101815.50;5069756;28;20055;-54
2022/04/10 00:32:06;;;;;;;10.87;5.67;;;;;;;0.81;100.00;101816.41;5067681;28;20048;-52
2022/04/10 00:34:31;;;;;;;13.33;5.63;;;;;;;0.83;100.00;101812.31;5069109;28;20040;-52
2022/04/10 00:36:56;;;;;;;12.63;5.77;;;;;;;0.85;100.00;101818.44;5069576;28;20035;-54
2022/04/10 00:39:22;;;;;;;9.63;5.47;;;;;;;0.81;100.00;101818.97;5069267;28;20020;-53
2022/04/10 00:41:49;;;;;;;11.23;5.67;;;;;;;0.78;100.00;101813.56;5069322;28;20020;-54
2022/04/10 00:44:15;;;;;;;14.43;6.40;;;;;;;0.74;100.00;101814.09;5068841;28;20024;-53
2022/04/10 00:46:41;;;;;;;11.00;6.00;;;;;;;0.73;100.00;101812.28;5069470;28;20051;-53
2022/04/10 00:49:07;;;;;;;12.03;6.23;;;;;;;0.73;100.00;101809.72;5068965;28;20049;-54
2022/04/10 00:51:40;;;;;;;9.87;6.50;;;;;;;0.71;100.00;101810.50;5069243;28;20583;-54
2022/04/10 00:54:27;;;;;;;11.00;6.67;;;;;;;0.68;100.00;101809.34;5068858;28;20024;-53
2022/04/10 00:56:54;;;;;;;9.60;6.00;;;;;;;0.63;100.00;101806.34;5069291;28;20031;-53
2022/04/10 00:59:20;;;;;;;11.53;6.70;;;;;;;0.59;100.00;101809.41;5068797;28;20024;-54
2022/04/10 01:01:47;;;;;;;14.07;6.97;;;;;;;0.58;100.00;101808.50;5069470;28;20379;-53
2022/04/10 01:04:13;;;;;;;8.90;6.40;;;;;;;0.57;100.00;101800.72;5068879;28;20058;-53
2022/04/10 01:06:40;;;;;;;8.73;6.90;;;;;;;0.56;100.00;101809.13;5068795;28;20048;-51
2022/04/10 01:09:06;;;;;;;8.90;7.20;;;;;;;0.54;100.00;101810.69;5067723;28;20020;-54
2022/04/10 01:11:33;;;;;;;11.93;7.83;;;;;;;0.53;100.00;101806.31;5069194;28;20082;-54
2022/04/10 01:13:59;;;;;;;10.70;6.97;;;;;;;0.47;100.00;101807.56;5068480;28;20024;-54
2022/04/10 01:16:25;;;;;;;8.50;6.63;;;;;;;0.45;100.00;101805.66;5068782;28;20024;-54
2022/04/10 01:18:51;;;;;;;11.37;7.90;;;;;;;0.43;100.00;101802.94;5068394;28;20020;-54
2022/04/10 01:21:27;;;;;;;11.17;7.33;;;;;;;0.41;100.00;101814.69;5068219;28;20500;-54
2022/04/10 01:23:54;;;;;;;11.00;7.30;;;;;;;0.39;100.00;101806.00;5068594;28;20017;-54
2022/04/10 01:26:22;;;;;;;15.50;8.30;;;;;;;0.40;100.00;101807.78;5068594;28;20031;-54
2022/04/10 01:28:57;;;;;;;10.37;7.50;;;;;;;0.41;100.00;101803.56;5068386;28;20028;-53
2022/04/10 01:31:22;;;;;;;12.67;8.27;;;;;;;0.47;100.00;101810.13;5068882;28;20044;-54
2022/04/10 01:33:49;;;;;;;12.07;8.37;;;;;;;0.49;100.00;101809.38;5068244;28;20052;-53
2022/04/10 01:36:14;;;;;;;13.03;8.57;;;;;;;0.55;100.00;101820.09;5068229;28;20478;-53
2022/04/10 01:38:41;;;;;;;9.63;7.70;;;;;;;0.59;100.00;101814.53;5068221;28;20020;-54
2022/04/10 01:41:11;;;;;;;12.73;8.20;;;;;;;0.65;100.00;101816.72;5042131;28;20353;-54
2022/04/10 01:43:44;;;;;;;10.90;8.70;;;;;;;0.66;100.00;101811.75;5049204;28;20016;-52
2022/04/10 01:46:14;;;;;;;13.33;8.40;;;;;;;0.67;100.00;101804.97;5049167;28;20051;-53
2022/04/10 01:48:39;;;;;;;12.77;9.23;;;;;;;0.65;100.00;101809.94;5048978;28;20044;-53
2022/04/10 01:51:05;;;;;;;14.10;9.20;;;;;;;0.62;100.00;101814.78;5047914;28;20029;-54
2022/04/10 01:53:31;;;;;;;10.63;8.40;;;;;;;0.59;100.00;101817.06;5048832;28;20025;-52
2022/04/10 01:55:56;;;;;;;11.83;8.47;;;;;;;0.59;100.00;101822.19;5048866;28;20020;-54
2022/04/10 01:58:21;;;;;;;10.73;9.27;;;;;;;0.58;100.00;101823.81;5048569;28;20024;-53
2022/04/10 02:00:46;;;;;;;13.87;9.37;;;;;;;0.55;100.00;101827.75;5047584;28;20388;-54
2022/04/10 02:03:12;;;;;;;11.63;9.20;;;;;;;0.49;100.00;101822.13;5048875;28;20035;-54
2022/04/10 02:05:37;;;;;;;14.30;9.20;;;;;;;0.49;100.00;101829.78;5048227;28;20029;-53
2022/04/10 02:08:02;;;;;;;10.87;9.00;;;;;;;0.46;100.00;101833.84;5048125;28;20036;-53
2022/04/10 02:10:28;;;;;;;14.93;9.00;;;;;;;0.41;100.00;101835.09;5048819;28;20026;-54
2022/04/10 02:12:53;;;;;;;11.23;9.97;;;;;;;0.40;100.00;101837.47;5047921;28;20032;-53
2022/04/10 02:15:18;;;;;;;11.70;9.17;;;;;;;0.37;100.00;101835.56;5048482;28;20106;-54
2022/04/10 02:17:43;;;;;;;12.43;9.23;;;;;;;0.32;100.00;101839.38;5048069;28;20377;-51
2022/04/10 02:20:09;;;;;;;13.73;9.87;;;;;;;0.27;100.00;101835.50;5041313;28;20032;-52
2022/04/10 02:22:34;;;;;;;13.00;10.20;;;;;;;0.25;100.00;101837.00;5048267;28;20025;-53
2022/04/10 02:25:00;;;;;;;13.60;10.30;;;;;;;0.21;100.00;101830.75;5048395;28;20017;-53
2022/04/10 02:27:25;;;;;;;16.00;10.30;;;;;;;0.19;100.00;101827.16;5048103;28;20036;-52
2022/04/10 02:29:50;;;;;;;12.57;10.33;;;;;;;0.15;100.00;101833.63;5048193;28;20029;-54
2022/04/10 02:32:15;;;;;;;16.30;10.90;;;;;;;0.09;100.00;101826.31;5048282;28;20040;-54
2022/04/10 02:34:41;;;;;;;16.00;11.03;;;;;;;0.06;100.00;101830.25;5047770;28;20095;-51
2022/04/10 02:37:06;;;;;;;11.73;9.53;;;;;;;0.02;100.00;101831.63;5046758;28;20055;-54
2022/04/10 02:39:31;;;;;;;12.90;10.20;;;;;;;-0.03;100.00;101838.84;5047971;28;20051;-53
2022/04/10 02:41:56;;;;;;;12.87;10.03;;;;;;;-0.05;100.00;101839.44;5048255;28;20483;-54
2022/04/10 02:44:22;;;;;;;17.27;11.30;;;;;;;-0.07;100.00;101844.41;5048101;28;20033;-54
2022/04/10 02:46:47;;;;;;;12.80;9.80;;;;;;;-0.08;100.00;101836.63;5042429;28;20076;-54
2022/04/10 02:49:13;;;;;;;13.33;11.47;;;;;;;-0.11;100.00;101841.47;5066848;28;20077;-55
2022/04/10 02:51:38;;;;;;;14.97;10.83;;;;;;;-0.15;100.00;101848.84;5067363;28;20399;-53
2022/04/10 02:54:04;;;;;;;14.30;11.57;;;;;;;-0.18;100.00;101845.09;5067152;28;20113;-53
2022/04/10 02:56:29;;;;;;;13.77;11.07;;;;;;;-0.21;100.00;101850.81;5067058;28;20145;-54
2022/04/10 02:58:54;;;;;;;14.53;11.27;;;;;;;-0.25;100.00;101852.16;5067098;28;20025;-54
2022/04/10 03:01:20;;;;;;;13.83;11.30;;;;;;;-0.27;100.00;101853.66;5067567;28;20048;-53
2022/04/10 03:03:45;;;;;;;15.13;10.50;;;;;;;-0.28;100.00;101853.53;5066510;28;20030;-53
2022/04/10 03:06:10;;;;;;;14.20;11.50;;;;;;;-0.29;100.00;101857.72;5066890;28;20036;-54
2022/04/10 03:08:35;;;;;;;14.73;11.97;;;;;;;-0.32;100.00;101862.53;5066900;28;20070;-51
2022/04/10 03:11:01;;;;;;;13.07;11.77;;;;;;;-0.32;100.00;101856.53;5067372;28;20381;-54
2022/04/10 03:13:26;;;;;;;13.77;11.70;;;;;;;-0.35;100.00;101857.16;5066962;28;20054;-52
2022/04/10 03:15:51;;;;;;;16.43;12.27;;;;;;;-0.34;100.00;101869.16;5066717;28;20468;-53
2022/04/10 03:18:17;;;;;;;15.67;12.27;;;;;;;-0.37;100.00;101858.69;5048840;28;20024;-54
2022/04/10 03:20:42;;;;;;;14.70;11.70;;;;;;;-0.40;100.00;101854.22;5050175;28;20028;-53
2022/04/10 03:23:10;;;;;;;18.20;12.40;;;;;;;-0.40;100.00;101858.41;5051233;28;20036;-54
2022/04/10 03:25:36;;;;;;;18.20;12.40;;;;;;;-0.40;100.00;101860.94;5056386;28;20410;-52
2022/04/10 03:28:01;;;;;;;16.87;13.17;;;;;;;-0.42;100.00;101859.91;5070340;28;20058;-53
2022/04/10 03:30:26;;;;;;;18.87;12.00;;;;;;;-0.43;100.00;101864.09;5071075;28;20016;-50
2022/04/10 03:32:51;;;;;;;16.73;12.00;;;;;;;-0.44;100.00;101867.41;5070662;28;20028;-52
2022/04/10 03:35:17;;;;;;;15.33;12.17;;;;;;;-0.47;100.00;101872.22;5070748;28;20024;-53
2022/04/10 03:37:43;;;;;;;16.07;12.63;;;;;;;-0.47;100.00;101874.78;5069934;28;20033;-54
2022/04/10 03:40:09;;;;;;;13.00;11.23;;;;;;;-0.47;100.00;101871.31;5070647;28;20207;-53
2022/04/10 03:42:40;;;;;;;14.33;11.40;;;;;;;-0.50;100.00;101865.19;5070348;28;20032;-53
2022/04/10 03:45:07;;;;;;;15.93;12.37;;;;;;;-0.52;100.00;101868.34;5070907;28;20472;-53
2022/04/10 03:47:33;;;;;;;15.60;11.83;;;;;;;-0.54;100.00;101870.72;5069295;28;20056;-52
2022/04/10 03:49:58;;;;;;;14.90;12.03;;;;;;;-0.57;100.00;101865.34;5070474;28;20025;-51
2022/04/10 03:52:23;;;;;;;13.27;11.77;;;;;;;-0.57;100.00;101872.09;5070443;28;20028;-52
2022/04/10 03:54:49;;;;;;;12.90;11.60;;;;;;;-0.57;100.00;101875.53;5070028;28;20533;-54
2022/04/10 03:57:14;;;;;;;16.43;11.80;;;;;;;-0.60;100.00;101880.34;5069941;28;20039;-52
2022/04/10 03:59:39;;;;;;;14.40;11.87;;;;;;;-0.59;100.00;101882.13;5069955;28;20473;-53
2022/04/10 04:02:05;;;;;;;13.87;12.40;;;;;;;-0.58;100.00;101886.50;5070469;28;20033;-53
2022/04/10 04:04:30;;;;;;;12.70;11.40;;;;;;;-0.57;100.00;101884.81;5070229;28;20024;-53
2022/04/10 04:06:55;;;;;;;11.83;10.37;;;;;;;-0.59;100.00;101884.69;5070707;28;20404;-54
2022/04/10 04:09:21;;;;;;;13.07;10.93;;;;;;;-0.59;100.00;101889.78;5070166;28;20041;-53
2022/04/10 04:11:46;;;;;;;16.83;11.90;;;;;;;-0.59;100.00;101894.88;5069681;28;20032;-53
2022/04/10 04:14:12;;;;;;;12.40;11.20;;;;;;;-0.60;100.00;101890.53;5069913;28;20033;-53
2022/04/10 04:16:37;;;;;;;12.43;10.67;;;;;;;-0.61;100.00;101899.81;5051510;28;20490;-54
2022/04/10 04:19:02;;;;;;;14.90;11.07;;;;;;;-0.62;100.00;101895.50;5050680;28;20025;-53
2022/04/10 04:21:28;;;;;;;14.13;10.87;;;;;;;-0.62;100.00;101889.50;5050713;28;20025;-53
2022/04/10 04:23:53;;;;;;;12.07;10.87;;;;;;;-0.64;100.00;101893.53;5049825;28;20107;-53
2022/04/10 04:26:18;;;;;;;15.93;10.27;;;;;;;-0.65;100.00;101887.53;5050589;28;20033;-53
2022/04/10 04:28:44;;;;;;;13.57;10.23;;;;;;;-0.66;100.00;101892.50;5048937;28;20029;-53
2022/04/10 04:31:12;;;;;;;15.00;10.73;;;;;;;-0.68;100.00;101881.25;5050286;28;20025;-52
2022/04/10 04:33:37;;;;;;;12.73;11.13;;;;;;;-0.70;100.00;101893.84;5050191;28;20033;-53
2022/04/10 04:36:03;;;;;;;12.67;11.03;;;;;;;-0.71;100.00;101898.78;5050603;28;20526;-54
2022/04/10 04:38:28;;;;;;;13.43;10.73;;;;;;;-0.72;100.00;101897.94;5050036;28;20029;-53
2022/04/10 04:40:53;;;;;;;11.53;10.43;;;;;;;-0.74;100.00;101902.84;5049900;28;20191;-54
2022/04/10 04:43:18;;;;;;;12.73;11.47;;;;;;;-0.73;100.00;101899.56;5048497;28;20052;-52
2022/04/10 04:45:44;;;;;;;14.07;11.27;;;;;;;-0.73;100.00;101902.13;5047729;28;20017;-51
2022/04/10 04:48:10;;;;;;;12.40;11.17;;;;;;;-0.71;100.00;101906.44;5047636;28;20493;-54
2022/04/10 04:50:35;;;;;;;13.77;10.57;;;;;;;-0.73;100.00;101913.94;5048071;28;20064;-52
2022/04/10 04:53:00;;;;;;;11.83;10.63;;;;;;;-0.75;100.00;101905.25;5048859;28;20104;-52
2022/04/10 04:55:25;;;;;;;11.60;10.07;;;;;;;-0.77;100.00;101901.66;5044807;28;20041;-53
2022/04/10 04:57:51;;;;;;;12.40;10.00;;;;;;;-0.78;100.00;101910.97;5049331;28;20025;-53
2022/04/10 05:00:16;;;;;;;13.90;10.77;;;;;;;-0.78;100.00;101913.50;5049789;28;20060;-55
2022/04/10 05:02:41;;;;;;;14.13;10.50;;;;;;;-0.81;100.00;101918.28;5050547;28;20037;-53
2022/04/10 05:05:07;;;;;;;13.63;10.23;;;;;;;-0.83;100.00;101908.72;5041791;28;20040;-54
2022/04/10 05:07:33;;;;;;;12.40;10.30;;;;;;;-0.85;100.00;101917.09;5036077;28;20028;-51
2022/04/10 05:09:58;;;;;;;10.33;9.33;;;;;;;-0.85;100.00;101916.22;5031779;28;20029;-53
2022/04/10 05:12:24;;;;;;;14.13;9.83;;;;;;;-0.88;100.00;101923.56;5032783;28;20104;-50
2022/04/10 05:14:49;;;;;;;11.27;10.17;;;;;;;-0.87;100.00;101930.44;5038562;28;20119;-51
2022/04/10 05:17:14;;;;;;;13.83;10.63;;;;;;;-0.86;100.00;101924.59;5049367;28;20037;-51
2022/04/10 05:19:39;;;;;;;11.23;10.10;;;;;;;-0.87;100.00;101932.97;5048890;28;20487;-54
2022/04/10 05:22:05;;;;;;;13.90;10.73;;;;;;;-0.85;100.00;101928.94;5049144;28;20090;-53
2022/04/10 05:24:30;;;;;;;17.00;10.47;;;;;;;-0.86;100.00;101933.13;5049386;28;20533;-53
2022/04/10 05:26:55;;;;;;;15.10;11.27;;;;;;;-0.81;100.00;101940.31;5056282;28;20063;-52
2022/04/10 05:29:21;;;;;;;15.00;10.73;;;;;;;-0.77;100.00;101937.28;5049055;28;20107;-54
2022/04/10 05:31:46;;;;;;;11.27;10.17;;;;;;;-0.74;100.00;101942.72;5048641;28;20507;-53
2022/04/10 05:34:11;;;;;;;12.73;10.30;;;;;;;-0.69;100.00;101943.13;5050654;28;20040;-53
2022/04/10 05:36:37;;;;;;;14.87;11.23;;;;;;;-0.64;100.00;101949.56;5067971;28;20103;-51
2022/04/10 05:39:02;;;;;;;14.57;10.50;;;;;;;-0.58;100.00;101950.16;5067734;28;20044;-53
2022/04/10 05:41:27;;;;;;;11.97;9.83;;;;;;;-0.50;100.00;101954.31;5067838;28;20043;-54
2022/04/10 05:43:52;;;;;;;14.27;10.73;;;;;;;-0.41;100.00;101948.28;5039440;28;20033;-53
2022/04/10 05:46:18;;;;;;;12.70;10.97;;;;;;;-0.32;100.00;101949.16;5033309;28;20029;-53
2022/04/10 05:48:43;;;;;;;13.90;12.07;;;;;;;-0.22;100.00;101957.69;5040313;28;20098;-53
2022/04/10 05:51:08;;;;;;;15.40;12.23;;;;;;;-0.11;100.00;101959.59;5034714;28;20064;-52
2022/04/10 05:53:34;;;;;;;13.67;11.40;;;;;;;0.00;100.00;101963.16;5036525;28;20524;-51
2022/04/10 05:55:59;;;;;;;13.13;10.70;;;;;;;0.11;100.00;101961.56;5034602;28;20029;-52
2022/04/10 05:58:24;;;;;;;16.33;9.80;;;;;;;0.26;100.00;101971.41;5035086;28;20021;-54
2022/04/10 06:00:50;;;;;;;13.10;9.30;;;;;;;0.40;100.00;101968.47;5034247;28;20060;-54
2022/04/10 06:03:15;;;;;;;14.23;9.23;;;;;;;0.56;100.00;101974.97;5050991;28;20025;-53
2022/04/10 06:05:41;;;;;;;9.17;8.27;;;;;;;0.75;100.00;101976.63;5067506;28;20016;-54
2022/04/10 06:08:06;;;;;;;14.77;9.43;;;;;;;0.95;100.00;101988.66;5067706;28;20107;-54
2022/04/10 06:10:31;;;;;;;10.70;8.03;;;;;;;1.11;100.00;101984.91;5067778;28;20074;-54
2022/04/10 06:13:10;;;;;;;10.77;7.37;;;;;;;1.18;100.00;101987.25;5067743;28;20055;-53
2022/04/10 06:15:35;;;;;;;10.90;7.07;;;;;;;1.30;100.00;101989.97;5067701;28;20029;-53
2022/04/10 06:18:00;;;;;;;8.67;7.00;;;;;;;1.46;100.00;101992.22;5067318;28;20031;-54
2022/04/10 06:20:26;;;;;;;9.43;7.57;;;;;;;1.72;100.00;101998.72;5067922;28;20029;-54
2022/04/10 06:22:52;;;;;;;10.27;7.27;;;;;;;1.99;100.00;101993.31;5067393;28;20028;-53
2022/04/10 06:25:17;;;;;;;8.20;6.77;;;;;;;2.27;100.00;102001.66;5067484;28;20032;-53
2022/04/10 06:27:42;;;;;;;9.27;6.73;;;;;;;2.53;100.00;102007.19;5067384;28;20032;-53
2022/04/10 06:30:08;;;;;;;7.60;6.07;;;;;;;2.81;100.00;102006.00;5066928;28;20020;-54
2022/04/10 06:32:33;;;;;;;8.63;6.73;;;;;;;3.03;100.00;102003.56;5067252;28;20419;-54
2022/04/10 06:34:58;;;;;;;8.67;6.20;;;;;;;3.27;100.00;102008.91;5067255;28;20070;-55
2022/04/10 06:37:24;;;;;;;15.10;7.27;;;;;;;3.51;100.00;102014.19;5067068;28;20064;-54
2022/04/10 06:39:49;;;;;;;8.10;5.70;;;;;;;3.66;100.00;102018.72;5067657;28;20024;-54
2022/04/10 06:42:14;;;;;;;10.00;5.93;;;;;;;3.87;100.00;102019.53;5067215;28;20032;-53
2022/04/10 06:44:43;;;;;;;10.17;5.60;;;;;;;3.94;100.00;102013.22;5067708;28;20286;-53
2022/04/10 06:47:08;;;;;;;10.43;5.67;;;;;;;4.15;100.00;102015.66;5067090;28;20110;-53
2022/04/10 06:49:34;;;;;;;7.83;5.53;;;;;;;4.40;99.75;102023.59;5067351;28;20050;-54
2022/04/10 06:52:00;;;;;;;8.35;5.85;;;;;;;4.56;97.71;102022.16;5067714;28;20036;-54
2022/04/10 06:54:25;;;;;;;7.97;5.28;;;;;;;4.87;96.95;102026.16;5069143;28;20055;-55
2022/04/10 06:56:50;;;;;;;7.38;5.40;;;;;;;5.06;95.55;102030.97;5048706;28;20135;-55
2022/04/10 06:59:15;;;;;;;6.55;4.90;;;;;;;5.34;94.30;102024.41;5052816;28;20032;-54
2022/04/10 07:01:41;;;;;;;8.18;5.22;;;;;;;5.68;93.10;102021.69;5047629;28;20504;-54
2022/04/10 07:04:06;;;;;;;6.28;4.63;;;;;;;6.06;93.26;102025.16;5051044;28;20036;-54
2022/04/10 07:06:31;;;;;;;7.03;5.10;;;;;;;6.47;91.25;102026.25;5051928;28;20033;-54
2022/04/10 07:08:59;;;;;;;9.13;4.80;;;;;;;6.71;86.00;102030.38;5038525;28;20150;-55
2022/04/10 07:11:25;;;;;;;7.60;4.95;;;;;;;6.92;84.04;102028.34;5039464;28;20032;-55
2022/04/10 07:13:50;;;;;;;9.55;4.70;;;;;;;7.19;85.70;102032.63;5049932;28;20025;-55
2022/04/10 07:16:16;;;;;;;6.65;4.63;;;;;;;7.54;83.70;102034.00;5052016;28;20461;-56
2022/04/10 07:18:41;;;;;;;5.72;4.65;;;;;;;7.89;82.35;102030.97;5051311;28;20032;-55
2022/04/10 07:21:07;;;;;;;6.80;4.70;;;;;;;8.17;78.49;102030.97;5051974;28;20054;-54
2022/04/10 07:23:45;;;;;;;6.43;4.60;;;;;;;8.55;79.23;102033.19;5051409;28;20032;-55
2022/04/10 07:26:15;;;;;;;7.47;4.35;;;;;;;8.95;76.67;102031.19;5051608;28;20085;-54
2022/04/10 07:28:41;;;;;;;9.27;4.05;;;;;;;9.33;77.28;102027.31;5051902;28;20086;-54
2022/04/10 07:31:08;;;;;;;7.50;4.63;;;;;;;9.84;75.73;102029.19;5050932;28;20032;-56
2022/04/10 07:33:33;;;;;;;8.23;4.03;;;;;;;10.15;69.69;102032.53;5050348;28;20037;-54
2022/04/10 07:35:59;;;;;;;7.95;3.78;;;;;;;10.44;70.03;102040.06;5050615;28;20044;-55
2022/04/10 07:38:24;;;;;;;6.95;4.03;;;;;;;10.74;66.84;102039.88;5049756;28;20173;-54
2022/04/10 07:40:49;;;;;;;7.13;3.92;;;;;;;11.05;65.06;102046.59;5049291;28;20025;-56
2022/04/10 07:43:16;;;;;;;6.45;4.10;;;;;;;11.26;65.62;102051.06;5049945;28;20032;-56
2022/04/10 07:48:25;;;;;;;9.70;3.75;;;;;;;11.68;64.92;102054.75;5049705;28;20111;-55
2022/04/10 07:50:51;;;;;;;9.27;4.00;;;;;;;11.86;61.67;102057.31;5050609;28;20037;-56
2022/04/10 07:53:16;;;;;;;5.80;2.97;;;;;;;12.16;61.92;102063.00;5050486;28;20032;-55
2022/04/10 07:55:42;;;;;;;7.28;3.30;;;;;;;12.37;59.08;102060.44;5050993;28;20020;-56
2022/04/10 07:58:07;;;;;;;7.95;3.25;;;;;;;12.53;57.98;102066.31;5051126;28;20035;-54
2022/04/10 08:00:32;;;;;;;7.57;3.72;;;;;;;12.61;57.37;102070.13;5050505;28;20283;-57
2022/04/10 08:02:59;;;;;;;5.65;3.33;;;;;;;12.88;57.69;102074.72;5050894;28;20031;-56
2022/04/10 08:05:25;;;;;;;5.93;2.58;;;;;;;12.95;55.79;102078.50;5049997;28;20488;-56
2022/04/10 08:07:50;;;;;;;5.82;2.70;;;;;;;13.14;57.58;102069.75;5050880;28;20059;-56
2022/04/10 08:10:16;;;;;;;6.05;2.97;;;;;;;13.35;56.49;102073.16;5050966;28;20035;-56
2022/04/10 08:12:43;;;;;;;6.43;3.00;;;;;;;13.30;54.74;102075.56;5051005;28;20302;-56
2022/04/10 08:15:10;;;;;;;8.15;2.90;;;;;;;13.36;55.29;102074.91;5050670;28;20028;-56
2022/04/10 08:17:36;;;;;;;4.57;2.63;;;;;;;13.39;53.79;102081.16;5050738;28;20119;-55
2022/04/10 08:20:04;;;;;;;8.98;3.20;;;;;;;13.44;54.88;102078.72;5050381;28;20107;-56
2022/04/10 08:22:30;;;;;;;8.07;3.45;;;;;;;13.53;54.12;102084.31;5051051;28;20583;-55
2022/04/10 08:25:03;;;;;;;8.40;2.72;;;;;;;13.06;54.13;102086.75;5050812;28;20558;-55
2022/04/10 08:27:30;;;;;;;4.55;2.38;;;;;;;12.64;55.33;102088.47;5050475;28;20174;-54
2022/04/10 08:29:56;;;;;;;4.25;2.28;;;;;;;12.61;56.84;102085.72;5050065;28;20044;-55
2022/04/10 08:32:21;;;;;;;4.65;2.03;;;;;;;12.66;55.96;102092.03;5050688;28;20029;-56
2022/04/10 08:34:46;;;;;;;3.92;2.10;;;;;;;12.37;55.30;102089.03;5050328;28;20021;-55
2022/04/10 08:37:12;;;;;;;4.00;2.42;;;;;;;12.05;56.04;102093.63;5050366;28;20029;-55
2022/04/10 08:39:37;;;;;;;5.90;1.52;;;;;;;11.43;55.53;102100.31;5050349;28;20028;-55
2022/04/10 08:42:04;;;;;;;6.15;1.60;;;;;;;10.93;55.19;102095.28;5049980;28;20021;-56
2022/04/10 08:44:31;;;;;;;6.45;1.95;;;;;;;10.50;58.56;102105.22;5050389;28;20063;-56
2022/04/10 08:46:58;;;;;;;5.07;2.33;;;;;;;9.91;60.83;102104.63;5043667;28;20031;-55
2022/04/10 08:49:31;;;;;;;6.22;2.72;;;;;;;9.44;64.17;102113.31;5043663;28;20142;-55
2022/04/10 08:51:58;;;;;;;7.03;2.60;;;;;;;9.17;66.42;102122.94;5049546;28;20031;-55
2022/04/10 08:54:25;;;;;;;7.55;2.78;;;;;;;8.72;67.32;102123.78;5049907;28;20028;-56
2022/04/10 08:56:51;;;;;;;5.15;2.33;;;;;;;8.49;68.55;102129.28;5050255;28;20016;-54
2022/04/10 08:59:17;;;;;;;6.80;2.53;;;;;;;8.39;70.13;102129.53;5049980;28;20380;-55
2022/04/10 09:01:43;;;;;;;8.25;3.25;;;;;;;8.42;71.14;102134.88;5043428;28;20033;-55
2022/04/10 09:04:08;;;;;;;7.22;2.60;;;;;;;8.73;71.35;102131.63;5049435;28;20027;-55
2022/04/10 09:06:39;;;;;;;4.53;2.58;;;;;;;9.27;69.38;102119.19;5049647;28;20024;-56
2022/04/10 09:09:12;;;;;;;7.28;2.65;;;;;;;9.87;68.53;102128.56;5069084;28;20013;-55
2022/04/10 09:11:41;;;;;;;6.88;2.40;;;;;;;10.38;64.63;102128.72;5068395;28;20563;-55
2022/04/10 09:14:07;;;;;;;4.95;2.17;;;;;;;10.90;62.59;102121.06;5068859;28;20059;-54
2022/04/10 09:16:32;;;;;;;5.35;2.03;;;;;;;11.26;61.15;102122.84;5068717;28;20032;-56
2022/04/10 09:19:00;;;;;;;7.53;2.22;;;;;;;11.17;57.45;102125.88;5068198;28;20427;-55
2022/04/10 09:21:30;;;;;;;6.47;1.80;;;;;;;11.40;58.07;102120.94;5043411;28;20544;-56
2022/04/10 09:24:09;;;;;;;3.45;1.60;;;;;;;11.60;56.56;102121.00;5049597;28;20415;-55
2022/04/10 09:26:45;;;;;;;4.20;1.42;;;;;;;11.73;55.49;102125.97;5049296;28;20035;-55
2022/04/10 09:29:11;;;;;;;4.00;1.73;;;;;;;11.91;55.25;102130.25;5049437;28;20033;-55
2022/04/10 09:31:37;;;;;;;5.93;2.30;;;;;;;12.05;55.58;102117.03;5049212;28;20035;-56
2022/04/10 09:34:05;;;;;;;5.60;1.50;;;;;;;12.27;55.08;102112.84;5049667;28;20052;-55
2022/04/10 09:36:43;;;;;;;4.15;1.73;;;;;;;12.38;54.13;102116.81;5049222;28;20082;-55
2022/04/10 09:39:14;;;;;;;2.90;1.50;;;;;;;12.49;50.77;102122.47;5049145;28;20423;-56
2022/04/10 09:41:41;;;;;;;5.23;1.90;;;;;;;12.52;52.53;102124.34;5049250;28;20357;-55
2022/04/10 09:44:17;;;;;;;3.05;1.38;;;;;;;12.74;51.23;102115.75;5048779;28;20272;-55
2022/04/10 09:46:43;;;;;;;4.95;1.52;;;;;;;12.68;50.57;102115.50;5048497;28;20029;-55
2022/04/10 09:49:13;;;;;;;5.85;1.48;;;;;;;12.68;51.18;102116.38;5048475;28;20055;-56
2022/04/10 09:51:58;;;;;;;4.30;1.40;;;;;;;12.29;49.94;102100.78;5048488;28;20025;-56
2022/04/10 09:54:24;;;;;;;3.47;1.20;;;;;;;12.31;51.17;102119.94;5048862;28;20123;-55
2022/04/10 09:56:49;;;;;;;4.05;1.60;;;;;;;12.48;51.52;102118.97;5048663;28;20493;-56
2022/04/10 09:59:22;;;;;;;5.95;1.48;;;;;;;12.61;52.97;102109.13;5048270;28;20074;-55
2022/04/10 10:01:48;;;;;;;3.83;1.50;;;;;;;12.69;52.57;102115.56;5049093;28;20390;-56
2022/04/10 10:04:15;;;;;;;6.13;1.63;;;;;;;12.79;50.76;102118.59;5048631;28;20036;-56
2022/04/10 10:06:42;;;;;;;5.22;1.40;;;;;;;12.77;50.73;102110.69;5048413;28;20029;-54
2022/04/10 10:09:08;;;;;;;3.08;1.50;;;;;;;12.89;50.23;102110.34;5048522;28;20045;-55
2022/04/10 10:11:34;;;;;;;2.95;1.20;;;;;;;12.81;47.41;102112.59;5048040;28;20107;-56
2022/04/10 10:13:59;;;;;;;3.88;1.50;;;;;;;12.52;47.88;102114.81;5041600;28;20031;-54
2022/04/10 10:16:25;;;;;;;6.03;1.50;;;;;;;12.42;50.66;102113.53;5048578;28;20021;-54
2022/04/10 10:18:50;;;;;;;3.47;1.38;;;;;;;12.46;49.16;102109.34;5048113;28;20024;-56
2022/04/10 10:21:16;;;;;;;2.72;1.60;;;;;;;12.60;50.81;102109.97;5047986;28;20036;-55
2022/04/10 10:23:48;;;;;;;5.03;1.73;;;;;;;12.72;51.12;102107.91;5048190;28;20044;-56
2022/04/10 10:26:24;;;;;;;5.35;1.40;;;;;;;12.81;50.83;102104.81;5048083;28;20029;-56
2022/04/10 10:29:45;;;;;;;5.40;1.55;;;;;;;12.71;50.32;102103.53;5047905;28;20029;-56
2022/04/10 10:32:16;;;;;;;3.88;1.33;;;;;;;12.94;49.83;102103.63;5011377;28;20516;-54
2022/04/10 10:34:43;;;;;;;7.70;1.70;;;;;;;13.11;49.96;102100.84;5047255;28;20028;-57
2022/04/10 10:37:09;;;;;;;3.88;1.42;;;;;;;13.31;48.19;102098.19;5048550;28;20035;-56
2022/04/10 10:39:49;;;;;;;4.45;1.45;;;;;;;13.40;47.25;102085.50;5047839;28;20376;-56
2022/04/10 10:42:15;;;;;;;3.78;1.30;;;;;;;13.55;48.34;102089.59;5047636;28;20108;-56
2022/04/10 10:44:42;;;;;;;3.65;1.40;;;;;;;13.60;48.49;102095.88;5048155;28;20354;-55
2022/04/10 10:47:18;;;;;;;3.17;1.10;;;;;;;13.60;47.61;102092.41;5048126;28;20110;-55
2022/04/10 10:49:46;;;;;;;3.83;1.67;;;;;;;13.19;45.76;102099.44;5047975;28;20045;-56
2022/04/10 10:52:14;;;;;;;3.67;1.67;;;;;;;13.04;49.57;102101.41;5048080;28;20036;-57
2022/04/10 10:54:55;;;;;;;2.88;1.15;;;;;;;12.89;48.36;102097.34;5047675;28;20036;-55
2022/04/10 10:57:38;;;;;;;6.50;1.63;;;;;;;12.59;49.70;102110.78;5047874;28;20033;-57
2022/04/10 11:00:08;;;;;;;4.43;1.50;;;;;;;12.27;50.11;102103.31;5047943;28;20025;-56
2022/04/10 11:02:37;;;;;;;4.55;1.80;;;;;;;12.17;51.20;102107.22;5048057;28;20029;-56
2022/04/10 11:05:07;;;;;;;5.00;2.03;;;;;;;12.19;51.14;102104.69;5047769;28;20017;-56
2022/04/10 11:07:39;;;;;;;3.25;1.45;;;;;;;12.16;50.74;102100.22;5047932;28;20033;-56
2022/04/10 11:10:08;;;;;;;3.38;1.58;;;;;;;12.35;52.08;102106.28;5063191;28;20073;-56
2022/04/10 11:12:52;;;;;;;3.92;1.42;;;;;;;12.56;50.04;102105.44;5067252;28;20040;-56
2022/04/10 11:15:22;;;;;;;4.07;1.90;;;;;;;12.66;50.44;102097.25;5066388;28;20032;-55
2022/04/10 11:17:49;;;;;;;4.57;1.70;;;;;;;12.86;49.98;102102.41;5066753;28;20024;-55